createdAt,value
2016-05-02T00:00:47.540Z,1020.28
2016-05-02T00:01:47.543Z,1020.26
2016-05-02T00:02:47.546Z,1020.27
2016-05-02T00:03:47.549Z,1020.27
2016-05-02T00:04:47.566Z,1020.29
2016-05-02T00:05:47.569Z,1020.2
2016-05-02T00:06:47.572Z,1020.23
2016-05-02T00:07:47.574Z,1020.2
2016-05-02T00:08:47.577Z,1020.15
2016-05-02T00:09:47.580Z,1020.16
2016-05-02T00:10:47.582Z,1020.13
2016-05-02T00:11:47.601Z,1020.13
2016-05-02T00:12:47.604Z,1020.12
2016-05-02T00:13:47.606Z,1020.13
2016-05-02T00:14:47.608Z,1020.14
2016-05-02T00:15:47.612Z,1020.11
2016-05-02T00:16:47.631Z,1020.12
2016-05-02T00:17:47.633Z,1020.08
2016-05-02T00:18:47.636Z,1020.09
2016-05-02T00:19:47.638Z,1020.14
2016-05-02T00:20:47.641Z,1020.13
2016-05-02T00:21:47.643Z,1020.15
2016-05-02T00:22:47.662Z,1020.12
2016-05-02T00:23:47.664Z,1020.11
2016-05-02T00:24:47.667Z,1020.09
2016-05-02T00:25:47.686Z,1020.11
2016-05-02T00:26:47.672Z,1020.1
2016-05-02T00:27:47.690Z,1020.09
2016-05-02T00:28:47.693Z,1020.09
2016-05-02T00:29:47.697Z,1020.09
2016-05-02T00:30:47.699Z,1020.07
2016-05-02T00:31:47.702Z,1020.06
2016-05-02T00:32:47.704Z,1020.09
2016-05-02T00:33:47.722Z,1020.04
2016-05-02T00:34:47.724Z,1020.02
2016-05-02T00:35:47.727Z,1020.04
2016-05-02T00:36:47.730Z,1020.04
2016-05-02T00:37:47.733Z,1020.08
2016-05-02T00:38:47.751Z,1020.06
2016-05-02T00:39:47.754Z,1020.08
2016-05-02T00:40:47.756Z,1020.06
2016-05-02T00:41:47.760Z,1020.06
2016-05-02T00:42:47.762Z,1020.04
2016-05-02T00:43:47.765Z,1020
2016-05-02T00:44:47.767Z,1020.03
2016-05-02T00:45:47.786Z,1020.01
2016-05-02T00:46:47.789Z,1019.98
2016-05-02T00:47:47.791Z,1019.98
2016-05-02T00:48:47.794Z,1019.98
2016-05-02T00:49:47.797Z,1020
2016-05-02T00:50:49.409Z,1019.98
2016-05-02T00:51:47.817Z,1019.98
2016-05-02T00:52:47.820Z,1019.99
2016-05-02T00:53:47.823Z,1020.01
2016-05-02T00:54:47.825Z,1019.99
2016-05-02T00:55:47.844Z,1020.05
2016-05-02T00:56:47.847Z,1020.07
2016-05-02T00:57:47.849Z,1020.02
2016-05-02T00:58:47.852Z,1020.06
2016-05-02T00:59:47.855Z,1020.04
2016-05-02T01:00:47.857Z,1020.03
2016-05-02T01:01:47.876Z,1020.01
2016-05-02T01:02:47.888Z,1020.03
2016-05-02T01:03:47.935Z,1020.07
2016-05-02T01:04:47.997Z,1020.03
2016-05-02T01:05:48.029Z,1020.04
2016-05-02T01:06:48.090Z,1020.04
2016-05-02T01:07:48.131Z,1020
2016-05-02T01:08:48.150Z,1020.04
2016-05-02T01:09:48.169Z,1020
2016-05-02T01:10:48.188Z,1019.96
2016-05-02T01:11:48.207Z,1019.99
2016-05-02T01:12:48.240Z,1019.99
2016-05-02T01:13:48.248Z,1019.97
2016-05-02T01:14:48.256Z,1019.96
2016-05-02T01:15:48.265Z,1019.95
2016-05-02T01:16:48.274Z,1019.94
2016-05-02T01:17:48.281Z,1019.95
2016-05-02T01:18:48.301Z,1019.96
2016-05-02T01:19:48.305Z,1019.98
2016-05-02T01:20:48.310Z,1019.97
2016-05-02T01:21:48.314Z,1020.02
2016-05-02T01:22:48.319Z,1020
2016-05-02T01:23:48.322Z,1020.02
2016-05-02T01:24:48.342Z,1020.02
2016-05-02T01:25:48.377Z,1020.04
2016-05-02T01:26:48.348Z,1020.02
2016-05-02T01:27:48.352Z,1019.99
2016-05-02T01:28:48.355Z,1020
2016-05-02T01:29:48.374Z,1020.01
2016-05-02T01:30:48.377Z,1020.01
2016-05-02T01:31:48.381Z,1019.98
2016-05-02T01:32:48.383Z,1019.98
2016-05-02T01:33:48.386Z,1019.94
2016-05-02T01:34:48.404Z,1019.95
2016-05-02T01:35:48.406Z,1019.94
2016-05-02T01:36:48.409Z,1019.93
2016-05-02T01:37:48.412Z,1019.9
2016-05-02T01:38:48.415Z,1019.93
2016-05-02T01:39:48.417Z,1019.92
2016-05-02T01:40:48.436Z,1019.91
2016-05-02T01:41:48.438Z,1019.94
2016-05-02T01:42:48.441Z,1019.9
2016-05-02T01:43:48.444Z,1019.91
2016-05-02T01:44:48.447Z,1019.87
2016-05-02T01:45:48.465Z,1019.87
2016-05-02T01:46:48.468Z,1019.88
2016-05-02T01:47:48.471Z,1019.84
2016-05-02T01:48:48.473Z,1019.81
2016-05-02T01:49:48.476Z,1019.79
2016-05-02T01:50:48.479Z,1019.79
2016-05-02T01:51:48.497Z,1019.82
2016-05-02T01:52:48.499Z,1019.81
2016-05-02T01:53:48.502Z,1019.75
2016-05-02T01:54:48.504Z,1019.81
2016-05-02T01:55:48.507Z,1019.77
2016-05-02T01:56:48.510Z,1019.77
2016-05-02T01:57:48.513Z,1019.8
2016-05-02T01:58:48.531Z,1019.82
2016-05-02T01:59:48.534Z,1019.78
2016-05-02T02:00:48.537Z,1019.79
2016-05-02T02:01:48.539Z,1019.78
2016-05-02T02:02:48.542Z,1019.78
2016-05-02T02:03:48.560Z,1019.79
2016-05-02T02:04:48.562Z,1019.79
2016-05-02T02:05:48.581Z,1019.82
2016-05-02T02:06:48.568Z,1019.78
2016-05-02T02:07:48.570Z,1019.78
2016-05-02T02:08:48.589Z,1019.76
2016-05-02T02:09:48.592Z,1019.76
2016-05-02T02:10:48.594Z,1019.73
2016-05-02T02:11:48.597Z,1019.74
2016-05-02T02:12:48.600Z,1019.74
2016-05-02T02:13:48.603Z,1019.73
2016-05-02T02:14:48.636Z,1019.77
2016-05-02T02:15:48.624Z,1019.75
2016-05-02T02:16:48.626Z,1019.73
2016-05-02T02:17:48.629Z,1019.77
2016-05-02T02:18:48.647Z,1019.74
2016-05-02T02:19:48.635Z,1019.74
2016-05-02T02:20:48.637Z,1019.76
2016-05-02T02:21:48.655Z,1019.73
2016-05-02T02:22:48.658Z,1019.75
2016-05-02T02:23:48.656Z,1019.73
2016-05-02T02:24:48.664Z,1019.76
2016-05-02T02:25:48.671Z,1019.73
2016-05-02T02:26:48.882Z,1019.72
2016-05-02T02:27:48.682Z,1019.76
2016-05-02T02:28:48.685Z,1019.75
2016-05-02T02:29:48.687Z,1019.75
2016-05-02T02:30:48.737Z,1019.72
2016-05-02T02:31:48.709Z,1019.72
2016-05-02T02:32:48.712Z,1019.73
2016-05-02T02:33:48.714Z,1019.7
2016-05-02T02:34:48.717Z,1019.72
2016-05-02T02:35:48.719Z,1019.68
2016-05-02T02:36:48.737Z,1019.68
2016-05-02T02:37:48.740Z,1019.69
2016-05-02T02:38:48.742Z,1019.68
2016-05-02T02:39:48.745Z,1019.69
2016-05-02T02:40:48.748Z,1019.66
2016-05-02T02:41:48.767Z,1019.64
2016-05-02T02:42:48.769Z,1019.66
2016-05-02T02:43:48.772Z,1019.69
2016-05-02T02:44:48.774Z,1019.63
2016-05-02T02:45:48.793Z,1019.65
2016-05-02T02:46:48.796Z,1019.67
2016-05-02T02:47:48.799Z,1019.66
2016-05-02T02:48:48.801Z,1019.65
2016-05-02T02:49:48.804Z,1019.69
2016-05-02T02:50:49.244Z,1019.65
2016-05-02T02:51:48.825Z,1019.66
2016-05-02T02:52:48.812Z,1019.69
2016-05-02T02:53:48.830Z,1019.67
2016-05-02T02:54:48.833Z,1019.69
2016-05-02T02:55:48.835Z,1019.62
2016-05-02T02:56:48.838Z,1019.66
2016-05-02T02:57:48.840Z,1019.62
2016-05-02T02:58:48.859Z,1019.62
2016-05-02T02:59:48.863Z,1019.58
2016-05-02T03:00:48.865Z,1019.59
2016-05-02T03:01:48.867Z,1019.6
2016-05-02T03:02:48.870Z,1019.6
2016-05-02T03:03:48.888Z,1019.58
2016-05-02T03:04:48.891Z,1019.58
2016-05-02T03:05:50.504Z,1019.56
2016-05-02T03:06:48.896Z,1019.57
2016-05-02T03:07:48.899Z,1019.59
2016-05-02T03:08:48.902Z,1019.57
2016-05-02T03:09:48.920Z,1019.58
2016-05-02T03:10:48.923Z,1019.6
2016-05-02T03:11:48.926Z,1019.58
2016-05-02T03:12:48.929Z,1019.55
2016-05-02T03:13:48.931Z,1019.55
2016-05-02T03:14:48.933Z,1019.54
2016-05-02T03:15:48.952Z,1019.56
2016-05-02T03:16:48.955Z,1019.56
2016-05-02T03:17:48.958Z,1019.55
2016-05-02T03:18:48.960Z,1019.54
2016-05-02T03:19:48.963Z,1019.5
2016-05-02T03:20:49.465Z,1019.54
2016-05-02T03:21:48.984Z,1019.48
2016-05-02T03:22:48.986Z,1019.49
2016-05-02T03:23:48.989Z,1019.46
2016-05-02T03:24:48.991Z,1019.46
2016-05-02T03:25:49.010Z,1019.42
2016-05-02T03:26:49.013Z,1019.41
2016-05-02T03:27:49.015Z,1019.39
2016-05-02T03:28:49.018Z,1019.4
2016-05-02T03:29:49.021Z,1019.37
2016-05-02T03:30:49.040Z,1019.37
2016-05-02T03:31:49.042Z,1019.34
2016-05-02T03:32:49.045Z,1019.35
2016-05-02T03:33:49.047Z,1019.34
2016-05-02T03:34:49.096Z,1019.36
2016-05-02T03:35:49.053Z,1019.35
2016-05-02T03:36:49.071Z,1019.34
2016-05-02T03:37:49.073Z,1019.33
2016-05-02T03:38:49.076Z,1019.33
2016-05-02T03:39:49.079Z,1019.32
2016-05-02T03:40:49.081Z,1019.33
2016-05-02T03:41:49.084Z,1019.32
2016-05-02T03:42:49.086Z,1019.34
2016-05-02T03:43:49.105Z,1019.31
2016-05-02T03:44:49.108Z,1019.32
2016-05-02T03:45:49.111Z,1019.3
2016-05-02T03:46:49.114Z,1019.31
2016-05-02T03:47:49.116Z,1019.32
2016-05-02T03:48:49.134Z,1019.29
2016-05-02T03:49:49.136Z,1019.35
2016-05-02T03:50:49.139Z,1019.29
2016-05-02T03:51:49.142Z,1019.32
2016-05-02T03:52:49.145Z,1019.31
2016-05-02T03:53:49.147Z,1019.34
2016-05-02T03:54:49.150Z,1019.32
2016-05-02T03:55:49.169Z,1019.33
2016-05-02T03:56:49.172Z,1019.32
2016-05-02T03:57:49.175Z,1019.3
2016-05-02T03:58:49.177Z,1019.32
2016-05-02T03:59:49.180Z,1019.32
2016-05-02T04:00:49.198Z,1019.33
2016-05-02T04:01:49.201Z,1019.35
2016-05-02T04:02:49.204Z,1019.35
2016-05-02T04:03:49.207Z,1019.34
2016-05-02T04:04:49.209Z,1019.33
2016-05-02T04:05:49.212Z,1019.38
2016-05-02T04:06:49.230Z,1019.36
2016-05-02T04:07:49.232Z,1019.35
2016-05-02T04:08:49.235Z,1019.36
2016-05-02T04:09:49.237Z,1019.39
2016-05-02T04:10:49.240Z,1019.37
2016-05-02T04:11:49.259Z,1019.39
2016-05-02T04:12:49.262Z,1019.38
2016-05-02T04:13:49.264Z,1019.4
2016-05-02T04:14:49.267Z,1019.4
2016-05-02T04:15:49.270Z,1019.42
2016-05-02T04:16:49.272Z,1019.42
2016-05-02T04:17:49.291Z,1019.41
2016-05-02T04:18:49.294Z,1019.43
2016-05-02T04:19:49.296Z,1019.41
2016-05-02T04:20:49.299Z,1019.4
2016-05-02T04:21:49.302Z,1019.43
2016-05-02T04:22:49.304Z,1019.38
2016-05-02T04:23:49.322Z,1019.42
2016-05-02T04:24:49.325Z,1019.41
2016-05-02T04:25:49.327Z,1019.4
2016-05-02T04:26:49.330Z,1019.38
2016-05-02T04:27:49.333Z,1019.41
2016-05-02T04:28:49.351Z,1019.4
2016-05-02T04:29:49.354Z,1019.4
2016-05-02T04:30:49.357Z,1019.37
2016-05-02T04:31:49.359Z,1019.43
2016-05-02T04:32:49.362Z,1019.4
2016-05-02T04:33:49.365Z,1019.39
2016-05-02T04:34:49.383Z,1019.4
2016-05-02T04:35:49.385Z,1019.37
2016-05-02T04:36:49.388Z,1019.39
2016-05-02T04:37:49.391Z,1019.38
2016-05-02T04:38:49.410Z,1019.38
2016-05-02T04:39:49.396Z,1019.4
2016-05-02T04:40:49.414Z,1019.39
2016-05-02T04:41:49.417Z,1019.41
2016-05-02T04:42:49.421Z,1019.39
2016-05-02T04:43:49.423Z,1019.38
2016-05-02T04:44:49.426Z,1019.43
2016-05-02T04:45:49.444Z,1019.5
2016-05-02T04:46:49.447Z,1019.5
2016-05-02T04:47:49.450Z,1019.51
2016-05-02T04:48:49.452Z,1019.51
2016-05-02T04:49:49.455Z,1019.57
2016-05-02T04:50:49.520Z,1019.53
2016-05-02T04:51:49.475Z,1019.57
2016-05-02T04:52:49.478Z,1019.59
2016-05-02T04:53:49.481Z,1019.62
2016-05-02T04:54:49.483Z,1019.63
2016-05-02T04:55:49.502Z,1019.6
2016-05-02T04:56:49.505Z,1019.58
2016-05-02T04:57:49.508Z,1019.63
2016-05-02T04:58:49.510Z,1019.66
2016-05-02T04:59:49.513Z,1019.65
2016-05-02T05:00:49.532Z,1019.66
2016-05-02T05:01:49.534Z,1019.7
2016-05-02T05:02:49.537Z,1019.72
2016-05-02T05:03:49.540Z,1019.67
2016-05-02T05:04:49.557Z,1019.65
2016-05-02T05:05:49.560Z,1019.63
2016-05-02T05:06:49.563Z,1019.62
2016-05-02T05:07:49.566Z,1019.63
2016-05-02T05:08:49.585Z,1019.68
2016-05-02T05:09:49.587Z,1019.68
2016-05-02T05:10:49.590Z,1019.69
2016-05-02T05:11:49.592Z,1019.66
2016-05-02T05:12:49.610Z,1019.66
2016-05-02T05:13:49.613Z,1019.7
2016-05-02T05:14:49.616Z,1019.74
2016-05-02T05:15:49.618Z,1019.8
2016-05-02T05:16:49.637Z,1019.78
2016-05-02T05:17:49.640Z,1019.79
2016-05-02T05:18:49.642Z,1019.82
2016-05-02T05:19:49.645Z,1019.85
2016-05-02T05:20:49.663Z,1019.85
2016-05-02T05:21:49.666Z,1019.9
2016-05-02T05:22:49.669Z,1019.94
2016-05-02T05:23:49.687Z,1019.9
2016-05-02T05:24:49.689Z,1019.92
2016-05-02T05:25:49.692Z,1019.93
2016-05-02T05:26:49.695Z,1019.95
2016-05-02T05:27:49.713Z,1019.97
2016-05-02T05:28:49.716Z,1019.99
2016-05-02T05:29:49.719Z,1019.95
2016-05-02T05:30:49.738Z,1019.97
2016-05-02T05:31:49.740Z,1020.02
2016-05-02T05:32:49.743Z,1019.99
2016-05-02T05:33:49.760Z,1019.98
2016-05-02T05:34:49.763Z,1020.03
2016-05-02T05:35:49.766Z,1020.06
2016-05-02T05:36:49.784Z,1020.06
2016-05-02T05:37:49.787Z,1020.09
2016-05-02T05:38:49.790Z,1020.11
2016-05-02T05:39:49.807Z,1020.16
2016-05-02T05:40:49.811Z,1020.18
2016-05-02T05:41:49.813Z,1020.24
2016-05-02T05:42:49.815Z,1020.24
2016-05-02T05:43:49.834Z,1020.27
2016-05-02T05:44:49.837Z,1020.28
2016-05-02T05:45:49.856Z,1020.29
2016-05-02T05:46:49.858Z,1020.27
2016-05-02T05:47:49.861Z,1020.23
2016-05-02T05:48:49.879Z,1020.08
2016-05-02T05:49:49.882Z,1020.09
2016-05-02T05:50:49.900Z,1020.17
2016-05-02T05:51:49.903Z,1020.28
2016-05-02T05:52:49.905Z,1020.15
2016-05-02T05:53:49.924Z,1020.03
2016-05-02T05:54:49.927Z,1019.99
2016-05-02T05:55:49.930Z,1019.98
2016-05-02T05:56:49.933Z,1019.86
2016-05-02T05:57:49.950Z,1019.86
2016-05-02T05:58:49.952Z,1019.84
2016-05-02T05:59:49.955Z,1020.03
2016-05-02T06:00:49.974Z,1020.21
2016-05-02T06:01:49.977Z,1020.13
2016-05-02T06:02:49.979Z,1020.15
2016-05-02T06:03:49.997Z,1020.28
2016-05-02T06:04:50.000Z,1020.46
2016-05-02T06:05:50.002Z,1020.52
2016-05-02T06:06:50.021Z,1020.41
2016-05-02T06:07:50.024Z,1020.28
2016-05-02T06:08:50.027Z,1020.25
2016-05-02T06:09:50.046Z,1020.22
2016-05-02T06:10:50.048Z,1020.04
2016-05-02T06:11:50.050Z,1020.01
2016-05-02T06:12:50.068Z,1020.05
2016-05-02T06:13:50.071Z,1020.26
2016-05-02T06:14:50.073Z,1020.25
2016-05-02T06:15:50.092Z,1020.32
2016-05-02T06:16:50.095Z,1020.46
2016-05-02T06:17:50.114Z,1020.45
2016-05-02T06:18:50.116Z,1020.5
2016-05-02T06:19:50.150Z,1020.52
2016-05-02T06:20:50.136Z,1020.57
2016-05-02T06:21:50.139Z,1020.59
2016-05-02T06:22:50.194Z,1020.65
2016-05-02T06:23:50.149Z,1020.77
2016-05-02T06:24:50.169Z,1020.76
2016-05-02T06:25:50.186Z,1020.7
2016-05-02T06:26:50.189Z,1020.77
2016-05-02T06:27:50.191Z,1020.75
2016-05-02T06:28:50.194Z,1020.81
2016-05-02T06:29:50.213Z,1020.91
2016-05-02T06:30:50.216Z,1020.98
2016-05-02T06:31:50.234Z,1021.04
2016-05-02T06:32:50.237Z,1020.97
2016-05-02T06:33:50.240Z,1020.89
2016-05-02T06:34:50.257Z,1020.95
2016-05-02T06:35:50.261Z,1020.97
2016-05-02T06:36:50.279Z,1020.96
2016-05-02T06:37:50.282Z,1020.95
2016-05-02T06:38:50.299Z,1020.91
2016-05-02T06:39:50.302Z,1020.91
2016-05-02T06:40:50.321Z,1020.82
2016-05-02T06:41:50.324Z,1020.79
2016-05-02T06:42:50.342Z,1020.81
2016-05-02T06:43:50.345Z,1020.82
2016-05-02T06:44:50.347Z,1020.82
2016-05-02T06:45:50.350Z,1020.77
2016-05-02T06:46:50.367Z,1020.72
2016-05-02T06:47:50.371Z,1020.77
2016-05-02T06:48:50.389Z,1020.77
2016-05-02T06:49:50.392Z,1020.8
2016-05-02T06:50:50.411Z,1020.73
2016-05-02T06:51:50.413Z,1020.76
2016-05-02T06:52:50.430Z,1020.74
2016-05-02T06:53:50.433Z,1020.74
2016-05-02T06:54:50.452Z,1020.74
2016-05-02T06:55:50.455Z,1020.62
2016-05-02T06:56:50.488Z,1020.66
2016-05-02T06:57:50.475Z,1020.64
2016-05-02T06:58:50.478Z,1020.61
2016-05-02T06:59:50.497Z,1020.57
2016-05-02T07:00:50.499Z,1020.57
2016-05-02T07:01:50.518Z,1020.52
2016-05-02T07:02:50.521Z,1020.44
2016-05-02T07:03:50.539Z,1020.4
2016-05-02T07:04:50.541Z,1020.36
2016-05-02T07:05:50.560Z,1020.31
2016-05-02T07:06:50.563Z,1020.23
2016-05-02T07:07:50.581Z,1020.21
2016-05-02T07:08:50.584Z,1020.18
2016-05-02T07:09:50.602Z,1020.18
2016-05-02T07:10:50.604Z,1020.17
2016-05-02T07:11:50.607Z,1020.12
2016-05-02T07:12:50.626Z,1020.06
2016-05-02T07:13:50.643Z,1020.01
2016-05-02T07:14:50.646Z,1020
2016-05-02T07:15:50.664Z,1019.96
2016-05-02T07:16:50.668Z,1019.92
2016-05-02T07:17:50.670Z,1019.61
2016-05-02T07:18:50.689Z,1019.27
2016-05-02T07:19:50.706Z,1019.14
2016-05-02T07:20:51.272Z,1019.12
2016-05-02T07:21:50.712Z,1019.11
2016-05-02T07:22:50.730Z,1019.12
2016-05-02T07:23:50.750Z,1019.1
2016-05-02T07:24:50.752Z,1019.08
2016-05-02T07:25:50.755Z,1019.05
2016-05-02T07:26:50.758Z,1019.03
2016-05-02T07:27:50.775Z,1019.05
2016-05-02T07:28:50.778Z,1019
2016-05-02T07:29:50.796Z,1019.04
2016-05-02T07:30:50.799Z,1019.01
2016-05-02T07:31:50.801Z,1018.96
2016-05-02T07:32:50.804Z,1018.96
2016-05-02T07:33:50.822Z,1018.93
2016-05-02T07:34:50.825Z,1018.9
2016-05-02T07:35:50.827Z,1018.88
2016-05-02T07:36:50.846Z,1018.85
2016-05-02T07:37:50.848Z,1018.88
2016-05-02T07:38:50.852Z,1018.86
2016-05-02T07:39:50.870Z,1018.85
2016-05-02T07:40:50.873Z,1018.85
2016-05-02T07:41:50.876Z,1018.85
2016-05-02T07:42:50.894Z,1018.83
2016-05-02T07:43:50.896Z,1018.85
2016-05-02T07:44:50.899Z,1018.84
2016-05-02T07:45:50.902Z,1018.78
2016-05-02T07:46:50.920Z,1018.79
2016-05-02T07:47:50.923Z,1018.79
2016-05-02T07:48:50.925Z,1018.79
2016-05-02T07:49:50.944Z,1018.8
2016-05-02T07:50:50.947Z,1018.76
2016-05-02T07:51:50.950Z,1018.75
2016-05-02T07:52:50.952Z,1018.74
2016-05-02T07:53:50.970Z,1018.72
2016-05-02T07:54:50.972Z,1018.73
2016-05-02T07:55:50.975Z,1018.74
2016-05-02T07:56:50.994Z,1018.74
2016-05-02T07:57:51.012Z,1018.76
2016-05-02T07:58:50.999Z,1018.75
2016-05-02T07:59:51.002Z,1018.71
2016-05-02T08:00:51.020Z,1018.74
2016-05-02T08:01:51.022Z,1018.69
2016-05-02T08:02:51.025Z,1018.72
2016-05-02T08:03:51.028Z,1018.71
2016-05-02T08:04:51.046Z,1018.71
2016-05-02T08:05:51.049Z,1018.75
2016-05-02T08:06:51.052Z,1018.71
2016-05-02T08:07:51.071Z,1018.73
2016-05-02T08:08:51.074Z,1018.74
2016-05-02T08:09:51.075Z,1018.7
2016-05-02T08:10:51.094Z,1018.75
2016-05-02T08:11:51.081Z,1018.76
2016-05-02T08:12:51.099Z,1018.73
2016-05-02T08:13:51.102Z,1018.73
2016-05-02T08:14:51.105Z,1018.73
2016-05-02T08:15:51.123Z,1018.67
2016-05-02T08:16:51.125Z,1018.68
2016-05-02T08:17:51.128Z,1018.64
2016-05-02T08:18:51.147Z,1018.69
2016-05-02T08:19:51.150Z,1018.74
2016-05-02T08:20:51.153Z,1018.76
2016-05-02T08:21:51.155Z,1018.69
2016-05-02T08:22:51.157Z,1018.7
2016-05-02T08:23:51.176Z,1018.69
2016-05-02T08:24:51.178Z,1018.68
2016-05-02T08:25:51.181Z,1018.67
2016-05-02T08:26:51.200Z,1018.67
2016-05-02T08:27:51.202Z,1018.62
2016-05-02T08:28:51.205Z,1018.61
2016-05-02T08:29:51.223Z,1018.56
2016-05-02T08:30:51.210Z,1018.59
2016-05-02T08:31:51.228Z,1018.59
2016-05-02T08:32:51.231Z,1018.56
2016-05-02T08:33:51.233Z,1018.6
2016-05-02T08:34:51.252Z,1018.57
2016-05-02T08:35:51.255Z,1018.55
2016-05-02T08:36:51.632Z,1018.52
2016-05-02T08:37:51.261Z,1018.57
2016-05-02T08:38:51.279Z,1018.54
2016-05-02T08:39:51.281Z,1018.48
2016-05-02T08:40:51.284Z,1018.5
2016-05-02T08:41:51.287Z,1018.48
2016-05-02T08:42:51.290Z,1018.44
2016-05-02T08:43:51.292Z,1018.4
2016-05-02T08:44:51.310Z,1018.45
2016-05-02T08:45:51.313Z,1018.41
2016-05-02T08:46:51.301Z,1018.39
2016-05-02T08:47:51.318Z,1018.42
2016-05-02T08:48:51.306Z,1018.38
2016-05-02T08:49:51.386Z,1018.35
2016-05-02T08:50:51.326Z,1018.36
2016-05-02T08:51:51.329Z,1018.36
2016-05-02T08:52:51.332Z,1018.34
2016-05-02T08:53:51.334Z,1018.34
2016-05-02T08:54:51.336Z,1018.34
2016-05-02T08:55:51.340Z,1018.33
2016-05-02T08:56:51.343Z,1018.33
2016-05-02T08:57:51.345Z,1018.38
2016-05-02T08:58:51.348Z,1018.34
2016-05-02T08:59:51.351Z,1018.32
2016-05-02T09:00:51.353Z,1018.39
2016-05-02T09:01:51.356Z,1018.33
2016-05-02T09:02:51.359Z,1018.35
2016-05-02T09:03:51.361Z,1018.32
2016-05-02T09:04:51.364Z,1018.35
2016-05-02T09:05:51.367Z,1018.37
2016-05-02T09:06:51.385Z,1018.34
2016-05-02T09:07:51.388Z,1018.32
2016-05-02T09:08:51.391Z,1018.33
2016-05-02T09:09:51.393Z,1018.34
2016-05-02T09:10:51.396Z,1018.32
2016-05-02T09:11:51.414Z,1018.31
2016-05-02T09:12:51.401Z,1018.32
2016-05-02T09:13:51.404Z,1018.3
2016-05-02T09:14:51.437Z,1018.29
2016-05-02T09:15:51.425Z,1018.25
2016-05-02T09:16:51.428Z,1018.25
2016-05-02T09:17:51.431Z,1018.25
2016-05-02T09:18:51.433Z,1018.27
2016-05-02T09:19:51.436Z,1018.26
2016-05-02T09:20:51.439Z,1018.27
2016-05-02T09:21:51.442Z,1018.26
2016-05-02T09:22:51.459Z,1018.28
2016-05-02T09:23:51.462Z,1018.3
2016-05-02T09:24:51.464Z,1018.31
2016-05-02T09:25:51.468Z,1018.26
2016-05-02T09:26:51.517Z,1018.27
2016-05-02T09:27:51.473Z,1018.23
2016-05-02T09:28:51.476Z,1018.27
2016-05-02T09:29:51.494Z,1018.29
2016-05-02T09:30:51.496Z,1018.27
2016-05-02T09:31:51.499Z,1018.25
2016-05-02T09:32:51.503Z,1018.22
2016-05-02T09:33:51.505Z,1018.24
2016-05-02T09:34:51.522Z,1018.22
2016-05-02T09:35:51.526Z,1018.2
2016-05-02T09:36:51.544Z,1018.19
2016-05-02T09:37:51.530Z,1018.18
2016-05-02T09:38:51.550Z,1018.14
2016-05-02T09:39:51.536Z,1018.12
2016-05-02T09:40:51.538Z,1018.09
2016-05-02T09:41:51.542Z,1018.1
2016-05-02T09:42:51.560Z,1018.05
2016-05-02T09:43:51.562Z,1018.01
2016-05-02T09:44:51.550Z,1018.03
2016-05-02T09:45:51.568Z,1018.02
2016-05-02T09:46:51.555Z,1018
2016-05-02T09:47:51.558Z,1018.02
2016-05-02T09:48:51.560Z,1018
2016-05-02T09:49:51.563Z,1018.01
2016-05-02T09:50:51.581Z,1018
2016-05-02T09:51:51.569Z,1017.97
2016-05-02T09:52:51.571Z,1018
2016-05-02T09:53:51.590Z,1018.04
2016-05-02T09:54:51.592Z,1018
2016-05-02T09:55:51.579Z,1017.99
2016-05-02T09:56:51.597Z,1017.97
2016-05-02T09:57:51.600Z,1017.92
2016-05-02T09:58:51.603Z,1017.94
2016-05-02T09:59:51.605Z,1017.89
2016-05-02T10:00:51.608Z,1017.85
2016-05-02T10:01:51.611Z,1017.83
2016-05-02T10:02:51.614Z,1017.83
2016-05-02T10:03:51.617Z,1017.79
2016-05-02T10:04:51.619Z,1017.76
2016-05-02T10:05:51.622Z,1017.8
2016-05-02T10:06:51.812Z,1017.75
2016-05-02T10:07:51.627Z,1017.82
2016-05-02T10:08:51.647Z,1017.82
2016-05-02T10:09:51.692Z,1017.79
2016-05-02T10:10:51.738Z,1017.77
2016-05-02T10:11:51.784Z,1017.71
2016-05-02T10:12:51.830Z,1017.69
2016-05-02T10:13:51.881Z,1017.67
2016-05-02T10:14:51.899Z,1017.67
2016-05-02T10:15:51.918Z,1017.64
2016-05-02T10:16:51.936Z,1017.58
2016-05-02T10:17:51.954Z,1017.55
2016-05-02T10:18:51.969Z,1017.57
2016-05-02T10:19:51.977Z,1017.57
2016-05-02T10:20:51.986Z,1017.6
2016-05-02T10:21:52.462Z,1017.53
2016-05-02T10:22:52.003Z,1017.5
2016-05-02T10:23:52.009Z,1017.49
2016-05-02T10:24:52.014Z,1017.48
2016-05-02T10:25:52.019Z,1017.48
2016-05-02T10:26:52.008Z,1017.48
2016-05-02T10:27:52.012Z,1017.48
2016-05-02T10:28:52.017Z,1017.42
2016-05-02T10:29:52.020Z,1017.48
2016-05-02T10:30:52.023Z,1017.44
2016-05-02T10:31:52.027Z,1017.42
2016-05-02T10:32:52.030Z,1017.44
2016-05-02T10:33:52.033Z,1017.41
2016-05-02T10:34:52.036Z,1017.35
2016-05-02T10:35:52.038Z,1017.37
2016-05-02T10:36:52.042Z,1017.34
2016-05-02T10:37:52.028Z,1017.36
2016-05-02T10:38:52.047Z,1017.36
2016-05-02T10:39:52.049Z,1017.35
2016-05-02T10:40:52.052Z,1017.32
2016-05-02T10:41:52.055Z,1017.34
2016-05-02T10:42:52.058Z,1017.32
2016-05-02T10:43:52.060Z,1017.32
2016-05-02T10:44:52.063Z,1017.33
2016-05-02T10:45:52.065Z,1017.33
2016-05-02T10:46:52.068Z,1017.31
2016-05-02T10:47:52.070Z,1017.27
2016-05-02T10:48:52.074Z,1017.25
2016-05-02T10:49:52.092Z,1017.21
2016-05-02T10:50:52.095Z,1017.24
2016-05-02T10:51:52.097Z,1017.22
2016-05-02T10:52:52.100Z,1017.2
2016-05-02T10:53:52.103Z,1017.18
2016-05-02T10:54:52.105Z,1017.13
2016-05-02T10:55:52.123Z,1017.24
2016-05-02T10:56:52.111Z,1017.15
2016-05-02T10:57:52.129Z,1017.19
2016-05-02T10:58:52.132Z,1017.16
2016-05-02T10:59:52.134Z,1017.13
2016-05-02T11:00:52.137Z,1017.08
2016-05-02T11:01:52.139Z,1016.99
2016-05-02T11:02:52.142Z,1017.04
2016-05-02T11:03:52.145Z,1017.07
2016-05-02T11:04:52.148Z,1017.09
2016-05-02T11:05:52.151Z,1017.08
2016-05-02T11:06:52.544Z,1017.05
2016-05-02T11:07:52.156Z,1017.05
2016-05-02T11:08:52.174Z,1017.06
2016-05-02T11:09:52.177Z,1017.03
2016-05-02T11:10:52.179Z,1017.02
2016-05-02T11:11:52.182Z,1017.01
2016-05-02T11:12:52.186Z,1017.01
2016-05-02T11:13:52.188Z,1016.99
2016-05-02T11:14:52.207Z,1017
2016-05-02T11:15:52.209Z,1016.99
2016-05-02T11:16:52.212Z,1016.98
2016-05-02T11:17:52.215Z,1016.99
2016-05-02T11:18:52.217Z,1016.95
2016-05-02T11:19:52.235Z,1016.96
2016-05-02T11:20:52.238Z,1016.99
2016-05-02T11:21:52.240Z,1016.98
2016-05-02T11:22:52.251Z,1017
2016-05-02T11:23:52.238Z,1016.91
2016-05-02T11:24:52.257Z,1016.94
2016-05-02T11:25:52.259Z,1016.9
2016-05-02T11:26:52.262Z,1016.89
2016-05-02T11:27:52.264Z,1016.84
2016-05-02T11:28:52.283Z,1016.81
2016-05-02T11:29:52.286Z,1016.81
2016-05-02T11:30:52.288Z,1016.81
2016-05-02T11:31:52.292Z,1016.76
2016-05-02T11:32:52.294Z,1016.76
2016-05-02T11:33:52.297Z,1016.71
2016-05-02T11:34:52.299Z,1016.71
2016-05-02T11:35:52.317Z,1016.71
2016-05-02T11:36:52.320Z,1016.71
2016-05-02T11:37:52.323Z,1016.71
2016-05-02T11:38:52.325Z,1016.72
2016-05-02T11:39:52.328Z,1016.66
2016-05-02T11:40:52.347Z,1016.66
2016-05-02T11:41:52.349Z,1016.65
2016-05-02T11:42:52.351Z,1016.63
2016-05-02T11:43:52.355Z,1016.61
2016-05-02T11:44:52.372Z,1016.59
2016-05-02T11:45:52.375Z,1016.53
2016-05-02T11:46:52.378Z,1016.56
2016-05-02T11:47:52.380Z,1016.61
2016-05-02T11:48:52.383Z,1016.59
2016-05-02T11:49:52.386Z,1016.57
2016-05-02T11:50:52.404Z,1016.57
2016-05-02T11:51:52.407Z,1016.54
2016-05-02T11:52:52.410Z,1016.51
2016-05-02T11:53:52.412Z,1016.5
2016-05-02T11:54:52.415Z,1016.4
2016-05-02T11:55:52.418Z,1016.49
2016-05-02T11:56:52.436Z,1016.45
2016-05-02T11:57:52.439Z,1016.38
2016-05-02T11:58:52.442Z,1016.4
2016-05-02T11:59:52.445Z,1016.42
2016-05-02T12:00:52.447Z,1016.4
2016-05-02T12:01:52.450Z,1016.35
2016-05-02T12:02:52.453Z,1016.35
2016-05-02T12:03:52.471Z,1016.29
2016-05-02T12:04:52.473Z,1016.32
2016-05-02T12:05:52.476Z,1016.34
2016-05-02T12:06:52.495Z,1016.3
2016-05-02T12:07:52.498Z,1016.31
2016-05-02T12:08:52.500Z,1016.31